Time;durP1;ratioP1;P1;durP2;ratioP2;P2;SDS_P1;SDS_P2;PMS_P1;PMS_P2;Temp;Humidity;BMP_temperature;BMP_pressure;BME280_temperature;BME280_humidity;BME280_pressure;Samples;Min_cycle;Max_cycle;Signal;HPM_P1;HPM_P2
2022/05/29 00:00:52;;;;;;;8.32;2.25;;;;;;;10.57;89.45;101296.16;5042063;28;20080;-76
2022/05/29 00:03:19;;;;;;;7.72;2.42;;;;;;;10.46;90.48;101287.75;5042643;28;20754;-75
2022/05/29 00:05:48;;;;;;;6.68;2.30;;;;;;;10.43;90.93;101291.31;5039684;28;20052;-75
2022/05/29 00:08:24;;;;;;;8.18;2.30;;;;;;;10.44;90.32;101290.91;5044586;28;20057;-77
2022/05/29 00:10:51;;;;;;;14.40;2.33;;;;;;;10.44;92.20;101301.19;5037190;28;20044;-75
2022/05/29 00:13:19;;;;;;;9.15;2.28;;;;;;;10.41;92.36;101291.69;5044672;28;20136;-76
2022/05/29 00:15:46;;;;;;;11.05;2.50;;;;;;;10.35;93.20;101289.63;5026452;28;20053;-75
2022/05/29 00:18:14;;;;;;;9.65;2.38;;;;;;;10.28;94.03;101282.09;5040575;28;20103;-76
2022/05/29 00:20:41;;;;;;;8.80;2.47;;;;;;;10.32;93.53;101280.13;5033531;28;20049;-76
2022/05/29 00:23:08;;;;;;;6.75;2.25;;;;;;;10.24;95.08;101278.50;5040936;28;20059;-76
2022/05/29 00:25:35;;;;;;;8.18;2.28;;;;;;;10.20;96.25;101276.88;5032467;28;20077;-76
2022/05/29 00:28:01;;;;;;;9.48;2.50;;;;;;;10.20;96.15;101277.63;5030750;28;20141;-75
2022/05/29 00:30:28;;;;;;;8.02;2.17;;;;;;;10.16;95.37;101264.97;5037210;28;20079;-75
2022/05/29 00:32:54;;;;;;;7.90;2.65;;;;;;;10.11;95.48;101263.34;5035394;28;20053;-76
2022/05/29 00:35:21;;;;;;;10.27;2.65;;;;;;;10.07;96.70;101265.28;5027468;28;20216;-76
2022/05/29 00:37:48;;;;;;;10.85;2.30;;;;;;;10.05;96.93;101256.53;5033552;28;20060;-77
2022/05/29 00:40:33;;;;;;;11.75;2.80;;;;;;;10.12;94.76;101264.13;5039775;28;20053;-76
2022/05/29 00:43:00;;;;;;;10.38;2.60;;;;;;;10.05;95.28;101259.31;5035715;28;20051;-76
2022/05/29 00:45:28;;;;;;;9.80;2.22;;;;;;;10.09;94.57;101271.22;5033002;28;20455;-76
2022/05/29 00:47:55;;;;;;;10.80;2.72;;;;;;;10.01;96.78;101266.78;5035509;28;20053;-76
2022/05/29 00:50:22;;;;;;;9.82;2.38;;;;;;;9.96;97.66;101269.09;5041151;28;20145;-75
2022/05/29 00:52:50;;;;;;;9.93;2.42;;;;;;;9.90;97.33;101271.41;5029418;28;20476;-74
2022/05/29 00:55:30;;;;;;;7.90;2.40;;;;;;;9.88;97.39;101264.66;5045286;28;20686;-75
2022/05/29 00:58:03;;;;;;;9.20;2.40;;;;;;;9.85;99.36;101266.22;5036365;28;20051;-75
2022/05/29 01:00:32;;;;;;;8.32;2.35;;;;;;;9.84;98.88;101261.88;5042322;28;20055;-76
2022/05/29 01:03:00;;;;;;;7.88;2.10;;;;;;;9.81;99.27;101259.06;5036850;28;20063;-76
2022/05/29 01:05:31;;;;;;;10.63;2.83;;;;;;;9.80;99.73;101261.03;5040667;28;20069;-75
2022/05/29 01:07:58;;;;;;;17.27;3.13;;;;;;;9.77;100.00;101259.03;5042270;28;20052;-75
2022/05/29 01:10:48;;;;;;;9.18;2.22;;;;;;;9.79;100.00;101266.94;5033125;28;20077;-75
2022/05/29 01:13:24;;;;;;;8.55;2.97;;;;;;;9.77;100.00;101264.56;5041053;28;20165;-75
2022/05/29 01:16:22;;;;;;;7.63;2.67;;;;;;;9.82;100.00;101258.69;5044692;28;20057;-76
2022/05/29 01:19:14;;;;;;;11.85;2.80;;;;;;;9.80;100.00;101255.50;5037801;28;20061;-76
2022/05/29 01:22:15;;;;;;;12.82;3.63;;;;;;;9.64;100.00;101241.13;5037160;28;20054;-75
2022/05/29 01:25:02;;;;;;;8.50;2.45;;;;;;;9.67;100.00;101251.41;5029647;28;20053;-75
2022/05/29 01:27:40;;;;;;;6.60;2.60;;;;;;;9.67;100.00;101247.84;5036644;28;20123;-75
2022/05/29 01:30:21;;;;;;;8.82;3.03;;;;;;;9.67;100.00;101245.91;5030281;28;20485;-75
2022/05/29 01:32:53;;;;;;;12.63;2.60;;;;;;;9.72;100.00;101245.53;5033497;28;20077;-76
2022/05/29 01:35:35;;;;;;;7.65;2.63;;;;;;;9.62;100.00;101242.69;5040905;28;20592;-75
2022/05/29 01:38:10;;;;;;;8.82;2.67;;;;;;;9.54;100.00;101241.78;5041049;28;20041;-75
2022/05/29 01:40:57;;;;;;;14.40;2.85;;;;;;;9.51;100.00;101234.25;5040782;28;20076;-75
2022/05/29 01:44:05;;;;;;;14.00;2.97;;;;;;;9.56;100.00;101233.13;5029949;28;20132;-75
2022/05/29 01:46:34;;;;;;;8.77;2.97;;;;;;;9.55;100.00;101226.81;5025124;28;20050;-77
2022/05/29 01:49:32;;;;;;;13.73;3.30;;;;;;;9.55;100.00;101224.03;5037269;28;20584;-75
2022/05/29 01:52:06;;;;;;;13.63;2.95;;;;;;;9.51;100.00;101217.69;5037840;28;20425;-75
2022/05/29 01:54:47;;;;;;;13.98;3.17;;;;;;;9.46;100.00;101218.03;5040062;28;20048;-76
2022/05/29 01:57:19;;;;;;;14.07;4.18;;;;;;;9.46;100.00;101225.53;5038935;28;20075;-77
2022/05/29 01:59:55;;;;;;;12.02;2.60;;;;;;;9.46;100.00;101209.75;5046945;28;20772;-75
2022/05/29 02:02:41;;;;;;;16.48;3.55;;;;;;;9.50;100.00;101215.31;5033171;28;20048;-75
2022/05/29 02:05:14;;;;;;;18.27;2.97;;;;;;;9.47;100.00;101216.06;5039516;28;20073;-76
2022/05/29 02:07:47;;;;;;;12.45;2.83;;;;;;;9.44;100.00;101214.03;5042814;28;20080;-76
2022/05/29 02:10:32;;;;;;;12.73;3.10;;;;;;;9.44;100.00;101212.09;5043689;28;20077;-75
2022/05/29 02:13:21;;;;;;;12.85;3.28;;;;;;;9.47;100.00;101205.81;5041547;28;20055;-75
2022/05/29 02:15:54;;;;;;;12.82;2.72;;;;;;;9.49;100.00;101208.19;5046636;28;20149;-75
2022/05/29 02:19:01;;;;;;;10.57;2.97;;;;;;;9.51;100.00;101205.84;5038798;28;20106;-75
2022/05/29 02:21:42;;;;;;;16.33;2.97;;;;;;;9.48;100.00;101201.06;5038486;28;20056;-76
2022/05/29 02:24:16;;;;;;;10.95;3.00;;;;;;;9.44;100.00;101194.72;5044684;28;20056;-75
2022/05/29 02:26:51;;;;;;;10.45;2.92;;;;;;;9.41;100.00;101206.50;5041014;28;20420;-76
2022/05/29 02:29:18;;;;;;;9.07;2.67;;;;;;;9.31;100.00;101199.69;5019633;28;20053;-75
2022/05/29 02:32:14;;;;;;;12.35;3.10;;;;;;;9.22;100.00;101201.94;5032846;28;20826;-75
2022/05/29 02:34:51;;;;;;;14.63;3.00;;;;;;;9.15;100.00;101190.81;5029848;28;20053;-75
2022/05/29 02:37:24;;;;;;;15.40;2.75;;;;;;;9.20;100.00;101203.50;5040508;28;20107;-75
2022/05/29 02:40:29;;;;;;;11.05;2.67;;;;;;;9.14;100.00;101197.53;5040678;28;20140;-75
2022/05/29 02:42:58;;;;;;;8.50;2.88;;;;;;;9.17;100.00;101202.28;5026587;28;20458;-76
2022/05/29 02:45:49;;;;;;;6.28;2.47;;;;;;;9.13;100.00;101192.38;5030395;28;20655;-74
2022/05/29 02:48:25;;;;;;;11.18;2.67;;;;;;;9.12;100.00;101191.59;5042724;28;20140;-75
2022/05/29 02:51:01;;;;;;;10.25;2.80;;;;;;;9.11;100.00;101189.22;5040543;28;20397;-76
2022/05/29 02:53:28;;;;;;;8.52;2.42;;;;;;;9.02;100.00;101183.97;5038674;28;20532;-75
2022/05/29 02:55:55;;;;;;;9.10;2.58;;;;;;;8.92;100.00;101184.63;5057175;28;20055;-75
2022/05/29 02:58:27;;;;;;;10.38;2.90;;;;;;;8.86;100.00;101180.59;5041335;28;20132;-76
2022/05/29 03:01:12;;;;;;;7.95;3.08;;;;;;;8.79;100.00;101186.03;5033779;28;20047;-77
2022/05/29 03:04:02;;;;;;;9.57;2.47;;;;;;;8.72;100.00;101180.44;5038885;28;20107;-77
2022/05/29 03:06:42;;;;;;;9.50;2.70;;;;;;;8.75;100.00;101168.66;5029011;28;20132;-74
2022/05/29 03:09:35;;;;;;;12.43;3.20;;;;;;;8.79;100.00;101175.00;5040898;28;20054;-76
2022/05/29 03:12:09;;;;;;;13.02;2.97;;;;;;;8.84;100.00;101176.66;5039679;28;20453;-75
2022/05/29 03:14:43;;;;;;;14.65;3.78;;;;;;;8.93;100.00;101172.41;5033408;28;20144;-75
2022/05/29 03:17:11;;;;;;;9.93;3.15;;;;;;;9.00;100.00;101174.47;5041735;28;20064;-76
2022/05/29 03:20:05;;;;;;;8.77;2.85;;;;;;;9.00;100.00;101177.22;5034407;28;20065;-75
2022/05/29 03:22:48;;;;;;;8.85;3.38;;;;;;;9.09;100.00;101174.97;5038094;28;20053;-75
2022/05/29 03:25:44;;;;;;;13.25;3.38;;;;;;;9.14;100.00;101169.09;5036413;28;20053;-76
2022/05/29 03:28:39;;;;;;;10.15;3.05;;;;;;;9.23;100.00;101167.66;5036490;28;20085;-75
2022/05/29 03:31:11;;;;;;;8.15;3.38;;;;;;;9.26;100.00;101171.63;5030748;28;20128;-75
2022/05/29 03:33:40;;;;;;;10.57;2.85;;;;;;;9.24;100.00;101165.69;5039592;28;20052;-75
2022/05/29 03:36:11;;;;;;;12.25;3.25;;;;;;;9.22;100.00;101168.81;5029686;28;20052;-78
2022/05/29 03:38:38;;;;;;;15.35;3.60;;;;;;;9.26;100.00;101171.63;5034229;28;20056;-75
2022/05/29 03:41:11;;;;;;;12.75;3.17;;;;;;;9.29;100.00;101166.16;5033865;28;20461;-77
2022/05/29 03:43:40;;;;;;;11.32;3.50;;;;;;;9.27;100.00;101165.72;5036276;28;20055;-75
2022/05/29 03:46:06;;;;;;;9.63;3.08;;;;;;;9.31;100.00;101163.81;5036726;28;20099;-75
2022/05/29 03:48:34;;;;;;;15.20;3.42;;;;;;;9.33;100.00;101172.50;5035147;28;20083;-76
2022/05/29 03:51:05;;;;;;;7.25;3.13;;;;;;;9.33;100.00;101168.94;5037022;28;20080;-76
2022/05/29 03:53:32;;;;;;;12.13;3.17;;;;;;;9.39;100.00;101164.69;5036201;28;20128;-75
2022/05/29 03:55:59;;;;;;;11.80;4.88;;;;;;;9.42;100.00;101169.44;5039135;28;20068;-75
2022/05/29 03:58:25;;;;;;;12.48;3.83;;;;;;;9.48;100.00;101165.97;5039901;28;20053;-75
2022/05/29 04:00:52;;;;;;;11.60;3.80;;;;;;;9.58;100.00;101162.50;5035121;28;20041;-74
2022/05/29 04:03:19;;;;;;;13.27;3.78;;;;;;;9.68;100.00;101163.78;5027529;28;20057;-74
2022/05/29 04:05:46;;;;;;;9.48;3.28;;;;;;;9.70;100.00;101159.47;5028740;28;20163;-74
2022/05/29 04:13:45;;;;;;;11.15;3.20;;;;;;;9.95;100.00;101148.63;5038547;28;20161;-75
2022/05/29 04:16:12;;;;;;;11.13;3.67;;;;;;;10.00;100.00;101157.34;5027085;28;20421;-75
2022/05/29 04:18:38;;;;;;;7.32;3.20;;;;;;;10.06;100.00;101150.34;5038998;28;20076;-75
2022/05/29 04:21:05;;;;;;;11.20;3.35;;;;;;;10.15;100.00;101148.03;5029474;28;20053;-75
2022/05/29 04:23:32;;;;;;;10.57;3.03;;;;;;;10.21;100.00;101140.97;5034746;28;20571;-76
2022/05/29 04:25:59;;;;;;;11.02;2.75;;;;;;;10.21;100.00;101143.75;5039032;28;20156;-75
2022/05/29 04:28:26;;;;;;;5.72;2.85;;;;;;;10.21;100.00;101146.50;5040534;28;20594;-74
2022/05/29 04:30:53;;;;;;;12.52;3.22;;;;;;;10.15;100.00;101134.22;5038958;28;20143;-75
2022/05/29 04:33:19;;;;;;;7.47;2.83;;;;;;;10.12;100.00;101132.22;5033331;28;20060;-76
2022/05/29 04:35:52;;;;;;;10.27;3.05;;;;;;;10.11;100.00;101136.16;5030699;28;20433;-74
2022/05/29 04:38:20;;;;;;;7.63;3.30;;;;;;;10.12;100.00;101134.97;5039991;28;20064;-76
2022/05/29 04:40:46;;;;;;;7.60;3.00;;;;;;;10.12;100.00;101136.94;5038959;28;20647;-75
2022/05/29 04:43:14;;;;;;;11.23;3.65;;;;;;;10.14;100.00;101143.69;5032531;28;20159;-75
2022/05/29 04:45:43;;;;;;;13.48;3.15;;;;;;;10.15;100.00;101136.16;5039882;28;20057;-76
2022/05/29 04:48:11;;;;;;;11.02;2.83;;;;;;;10.08;100.00;101131.41;5047831;28;20067;-76
2022/05/29 04:50:38;;;;;;;13.15;3.55;;;;;;;10.18;100.00;101130.69;5045174;28;20153;-75
2022/05/29 04:53:05;;;;;;;10.48;3.40;;;;;;;10.17;100.00;101126.31;5034427;28;20144;-75
2022/05/29 04:55:32;;;;;;;4.25;1.10;;;;;;;10.20;100.00;101136.59;5049278;28;20576;-75
2022/05/29 04:57:59;;;;;;;10.52;3.28;;;;;;;10.38;100.00;101139.50;5038237;28;20536;-75
2022/05/29 05:00:25;;;;;;;9.80;3.08;;;;;;;10.42;100.00;101129.25;5037915;28;20055;-76
2022/05/29 05:02:52;;;;;;;14.95;4.40;;;;;;;10.43;100.00;101128.09;5030771;28;20540;-75
2022/05/29 05:05:19;;;;;;;6.15;2.90;;;;;;;10.42;100.00;101130.03;5034774;28;20049;-75
2022/05/29 05:07:46;;;;;;;13.05;3.63;;;;;;;10.53;100.00;101130.91;5039095;28;20049;-75
2022/05/29 05:10:15;;;;;;;12.45;3.22;;;;;;;10.58;100.00;101132.50;5039715;28;20140;-75
2022/05/29 05:12:42;;;;;;;13.05;3.15;;;;;;;10.60;100.00;101129.34;5036460;28;20045;-76
2022/05/29 05:15:11;;;;;;;7.50;2.97;;;;;;;10.64;100.00;101130.16;5033139;28;20135;-75
2022/05/29 05:17:38;;;;;;;14.65;3.53;;;;;;;10.70;100.00;101125.84;5034146;28;20058;-75
2022/05/29 05:20:06;;;;;;;10.00;3.40;;;;;;;10.77;100.00;101123.09;5034546;28;20057;-77
2022/05/29 05:22:33;;;;;;;14.38;3.20;;;;;;;10.72;100.00;101115.16;5034286;28;20585;-77
2022/05/29 05:25:01;;;;;;;10.35;2.85;;;;;;;10.78;100.00;101117.19;5034676;28;20069;-77
2022/05/29 05:27:28;;;;;;;13.80;4.15;;;;;;;10.86;100.00;101115.25;5032284;28;20071;-76
2022/05/29 05:29:54;;;;;;;8.05;2.90;;;;;;;10.75;100.00;101117.16;5035684;28;20475;-75
2022/05/29 05:32:21;;;;;;;7.78;2.45;;;;;;;10.78;100.00;101114.41;5030663;28;20692;-76
2022/05/29 05:34:48;;;;;;;9.32;2.88;;;;;;;10.78;100.00;101121.91;5034012;28;20102;-75
2022/05/29 05:37:15;;;;;;;9.20;3.22;;;;;;;10.87;100.00;101116.81;5040178;28;20147;-76
2022/05/29 05:39:42;;;;;;;14.70;4.28;;;;;;;10.95;100.00;101113.69;5038353;28;20068;-75
2022/05/29 05:42:09;;;;;;;18.58;4.35;;;;;;;11.07;100.00;101118.09;5037012;28;20122;-76
2022/05/29 05:44:36;;;;;;;12.48;4.18;;;;;;;11.13;100.00;101119.31;5041733;28;20057;-80
2022/05/29 05:47:03;;;;;;;11.02;4.25;;;;;;;11.20;100.00;101116.56;5041296;28;20049;-81
2022/05/29 05:49:29;;;;;;;9.98;3.42;;;;;;;11.35;100.00;101121.72;5051070;28;20057;-80
2022/05/29 05:51:59;;;;;;;10.55;3.85;;;;;;;11.41;100.00;101122.13;5036971;28;20052;-80
2022/05/29 05:54:30;;;;;;;15.18;4.22;;;;;;;11.44;100.00;101124.13;5043033;28;20481;-80
2022/05/29 05:56:57;;;;;;;7.18;2.70;;;;;;;11.34;100.00;101113.81;5047076;28;20144;-82
2022/05/29 05:59:24;;;;;;;7.78;2.55;;;;;;;11.30;100.00;101113.03;5045588;28;20084;-81
2022/05/29 06:01:50;;;;;;;11.50;3.25;;;;;;;11.28;100.00;101109.84;5050338;28;20046;-81
2022/05/29 06:04:17;;;;;;;19.20;3.83;;;;;;;11.33;100.00;101114.97;5037099;28;20053;-80
2022/05/29 06:06:43;;;;;;;11.57;3.78;;;;;;;11.44;100.00;101110.28;5048766;28;20114;-81
2022/05/29 06:09:10;;;;;;;13.02;4.68;;;;;;;11.53;100.00;101116.19;5046550;28;20176;-80
2022/05/29 06:11:39;;;;;;;13.02;4.32;;;;;;;11.56;100.00;101109.88;5049628;28;20140;-81
2022/05/29 06:14:07;;;;;;;17.05;4.55;;;;;;;11.64;100.00;101119.84;5040769;28;20045;-80
2022/05/29 06:16:35;;;;;;;16.55;5.00;;;;;;;11.70;100.00;101107.13;5043149;28;20060;-81
2022/05/29 06:19:04;;;;;;;14.70;4.35;;;;;;;11.76;100.00;101108.34;5038874;28;20120;-81
2022/05/29 06:21:31;;;;;;;16.02;4.63;;;;;;;11.77;100.00;101096.06;5046480;28;20158;-81
2022/05/29 06:23:58;;;;;;;14.98;4.57;;;;;;;11.88;100.00;101099.63;5041520;28;20050;-81
2022/05/29 06:26:24;;;;;;;12.98;4.32;;;;;;;12.06;100.00;101114.28;5036437;28;20081;-81
2022/05/29 06:28:51;;;;;;;16.00;4.55;;;;;;;12.18;100.00;101108.31;5040704;28;20079;-81
2022/05/29 06:31:17;;;;;;;8.52;2.92;;;;;;;12.09;100.00;101088.53;5044548;28;20141;-80
2022/05/29 06:33:45;;;;;;;5.75;2.42;;;;;;;11.74;100.00;101094.88;5046346;28;20136;-80
2022/05/29 06:36:15;;;;;;;17.17;4.13;;;;;;;11.96;100.00;101110.34;5041252;28;20063;-81
2022/05/29 06:38:44;;;;;;;10.30;3.95;;;;;;;11.89;100.00;101121.44;5044871;28;20829;-82
2022/05/29 06:41:13;;;;;;;15.48;5.05;;;;;;;11.95;100.00;101113.50;5047177;28;20136;-80
2022/05/29 06:43:41;;;;;;;14.57;4.57;;;;;;;12.09;100.00;101110.72;5044465;28;20457;-81
2022/05/29 06:46:10;;;;;;;13.88;4.70;;;;;;;12.21;100.00;101115.81;5037090;28;20053;-82
2022/05/29 06:48:38;;;;;;;13.73;5.15;;;;;;;12.36;100.00;101122.97;5033318;28;20087;-74
2022/05/29 06:51:11;;;;;;;12.93;3.97;;;;;;;12.33;100.00;101123.75;5030604;28;20064;-76
2022/05/29 06:53:38;;;;;;;13.43;4.53;;;;;;;12.26;100.00;101121.00;5041600;28;20174;-78
2022/05/29 06:56:06;;;;;;;9.95;3.72;;;;;;;12.23;100.00;101122.59;5032172;28;20538;-78
2022/05/29 06:58:33;;;;;;;24.58;4.45;;;;;;;12.38;100.00;101115.81;5035546;28;20562;-77
2022/05/29 07:09:20;;;;;;;11.57;3.78;;;;;;;12.99;100.00;101119.97;5039442;28;20058;-78
2022/05/29 07:11:50;;;;;;;15.35;3.72;;;;;;;13.10;100.00;101112.41;5045297;28;20109;-78
2022/05/29 07:14:17;;;;;;;13.73;3.83;;;;;;;13.21;100.00;101115.13;5029304;28;20087;-71
2022/05/29 07:16:44;;;;;;;13.55;3.58;;;;;;;13.19;100.00;101114.75;5031861;28;20075;-76
2022/05/29 07:19:13;;;;;;;13.10;3.50;;;;;;;13.19;100.00;101118.31;5039276;28;20049;-76
2022/05/29 07:21:41;;;;;;;13.93;3.83;;;;;;;13.25;100.00;101113.09;5032109;28;20528;-76
2022/05/29 07:24:09;;;;;;;14.77;3.85;;;;;;;13.31;100.00;101108.72;5035270;28;20518;-76
2022/05/29 07:26:37;;;;;;;9.40;3.65;;;;;;;13.42;100.00;101104.66;5037296;28;20047;-76
2022/05/29 07:29:04;;;;;;;12.48;3.65;;;;;;;13.54;100.00;101106.19;5037975;28;20053;-76
2022/05/29 07:31:30;;;;;;;7.85;3.10;;;;;;;13.60;100.00;101102.56;5032112;28;20053;-77
2022/05/29 07:33:57;;;;;;;11.13;3.22;;;;;;;13.80;100.00;101098.03;5031744;28;20128;-76
2022/05/29 07:36:27;;;;;;;9.57;3.13;;;;;;;13.95;100.00;101104.25;5029622;28;20053;-78
2022/05/29 07:38:53;;;;;;;7.65;2.80;;;;;;;14.04;100.00;101101.81;5033183;28;20068;-76
2022/05/29 07:44:05;;;;;;;11.03;3.00;;;;;;;14.25;100.00;101093.28;5033378;28;20076;-80
2022/05/29 07:46:32;;;;;;;12.68;3.30;;;;;;;14.33;100.00;101086.44;5031036;28;20304;-77
2022/05/29 07:48:58;;;;;;;10.35;2.88;;;;;;;14.46;100.00;101079.94;5035823;28;20548;-75
2022/05/29 07:51:25;;;;;;;12.18;3.05;;;;;;;14.49;100.00;101084.69;5027908;28;20081;-75
2022/05/29 07:53:52;;;;;;;17.17;3.15;;;;;;;14.52;100.00;101089.38;5041803;28;20041;-74
2022/05/29 07:56:19;;;;;;;11.90;3.42;;;;;;;14.57;100.00;101083.38;5037913;28;20064;-77
2022/05/29 07:58:46;;;;;;;14.38;3.10;;;;;;;14.49;100.00;101086.66;5032808;28;20056;-78
2022/05/29 08:01:12;;;;;;;8.85;2.33;;;;;;;14.32;100.00;101082.88;5041587;28;20053;-77
2022/05/29 08:03:40;;;;;;;10.43;2.47;;;;;;;14.22;100.00;101078.22;5039935;28;20136;-73
2022/05/29 08:06:07;;;;;;;10.63;2.92;;;;;;;14.44;100.00;101075.97;5033524;28;20057;-75
2022/05/29 08:08:34;;;;;;;11.93;2.67;;;;;;;14.74;100.00;101076.00;5046946;28;20421;-76
2022/05/29 08:11:01;;;;;;;9.73;2.83;;;;;;;14.77;97.43;101083.53;5038867;28;20095;-74
2022/05/29 08:13:30;;;;;;;11.55;2.50;;;;;;;14.90;97.51;101085.38;5037248;28;20051;-74
2022/05/29 08:15:57;;;;;;;8.63;2.40;;;;;;;14.97;93.03;101076.91;5033616;28;20049;-74
2022/05/29 08:18:25;;;;;;;7.82;2.30;;;;;;;15.09;92.46;101079.13;5039282;28;20456;-75
2022/05/29 08:20:52;;;;;;;9.07;2.38;;;;;;;15.07;88.25;101084.34;5039976;28;20119;-75
2022/05/29 08:23:22;;;;;;;10.57;2.83;;;;;;;15.14;87.90;101075.06;5037717;28;20053;-75
2022/05/29 08:31:28;;;;;;;7.35;3.20;;;;;;;15.37;84.00;101072.38;5036330;28;20167;-75
2022/05/29 08:33:55;;;;;;;8.85;2.00;;;;;;;15.42;82.48;101064.34;5040024;28;20072;-76
2022/05/29 08:36:25;;;;;;;10.07;2.63;;;;;;;15.39;82.07;101067.97;5042297;28;20049;-75
2022/05/29 08:38:56;;;;;;;12.75;2.42;;;;;;;15.37;84.54;101064.81;5036762;28;20060;-75
2022/05/29 08:41:43;;;;;;;6.15;2.22;;;;;;;15.15;80.15;101066.31;5026018;28;20072;-75
2022/05/29 08:44:12;;;;;;;9.70;2.63;;;;;;;15.22;83.13;101065.41;5036744;28;20049;-77
2022/05/29 08:46:47;;;;;;;16.75;2.95;;;;;;;15.34;83.89;101060.06;5031071;28;20045;-76
2022/05/29 08:49:21;;;;;;;9.82;2.40;;;;;;;15.38;82.61;101063.59;5031631;28;20049;-76
2022/05/29 08:52:22;;;;;;;12.23;2.10;;;;;;;15.41;81.79;101073.13;5042593;28;21052;-76
2022/05/29 08:55:07;;;;;;;7.47;2.83;;;;;;;15.21;78.62;101064.63;5029658;28;20135;-75
2022/05/29 08:58:09;;;;;;;7.97;1.88;;;;;;;14.97;81.54;101065.75;5031271;28;20137;-77
2022/05/29 09:00:44;;;;;;;5.82;1.85;;;;;;;14.83;88.28;101076.31;5028873;28;20073;-77
2022/05/29 09:03:30;;;;;;;6.95;1.92;;;;;;;14.72;88.53;101070.84;5033549;28;20139;-76
2022/05/29 09:06:17;;;;;;;1.38;0.85;;;;;;;14.40;90.00;101066.88;5031088;28;20085;-75
2022/05/29 09:08:50;;;;;;;6.75;3.28;;;;;;;14.35;90.38;101065.31;5032493;28;20170;-76
2022/05/29 09:11:27;;;;;;;7.40;2.00;;;;;;;14.28;94.40;101062.63;5033226;28;20637;-77
2022/05/29 09:13:56;;;;;;;7.63;1.85;;;;;;;14.27;96.29;101063.81;5029594;28;20136;-76
2022/05/29 09:16:26;;;;;;;10.45;2.20;;;;;;;14.25;98.31;101069.03;5030254;28;20063;-79
2022/05/29 09:19:13;;;;;;;10.48;2.40;;;;;;;14.26;100.00;101065.03;5044759;28;20150;-77
2022/05/29 09:21:55;;;;;;;9.32;2.50;;;;;;;14.25;100.00;101059.88;5034245;28;20049;-76
2022/05/29 09:24:50;;;;;;;8.25;2.13;;;;;;;14.33;100.00;101059.41;5043954;28;20076;-77
2022/05/29 09:27:17;;;;;;;9.05;2.30;;;;;;;14.44;100.00;101059.25;5042556;28;20060;-77
2022/05/29 09:29:44;;;;;;;5.88;1.88;;;;;;;14.48;100.00;101052.44;5048162;28;20110;-76
2022/05/29 09:32:17;;;;;;;5.35;1.90;;;;;;;14.67;100.00;101051.84;5032975;28;20164;-76
2022/05/29 09:34:56;;;;;;;8.13;2.42;;;;;;;14.97;100.00;101049.06;5048907;28;20155;-77
2022/05/29 09:37:41;;;;;;;10.88;2.20;;;;;;;15.10;95.23;101041.69;5045209;28;20135;-77
2022/05/29 09:40:15;;;;;;;9.75;2.30;;;;;;;15.27;94.94;101037.06;5038820;28;20141;-76
2022/05/29 09:42:43;;;;;;;5.78;2.08;;;;;;;15.49;93.52;101036.34;5039622;28;20150;-77
2022/05/29 09:45:24;;;;;;;6.78;2.17;;;;;;;15.57;89.30;101030.63;5037625;28;20057;-78
2022/05/29 09:50:48;;;;;;;4.82;1.52;;;;;;;15.43;81.11;101031.66;5039947;28;20045;-78
2022/05/29 09:53:41;;;;;;;8.50;2.03;;;;;;;15.93;83.85;101031.63;5042450;28;20049;-73
2022/05/29 09:56:09;;;;;;;6.10;1.90;;;;;;;16.35;78.85;101028.81;5044990;28;20092;-78
2022/05/29 09:58:47;;;;;;;8.30;1.92;;;;;;;16.45;74.73;101030.63;5041281;28;20080;-77
2022/05/29 10:01:34;;;;;;;7.18;1.73;;;;;;;16.76;74.78;101029.19;5042851;28;20061;-78
2022/05/29 10:04:04;;;;;;;4.68;1.85;;;;;;;16.99;73.20;101031.09;5040904;28;20084;-77
2022/05/29 10:06:41;;;;;;;9.00;1.70;;;;;;;17.04;71.93;101025.75;5042342;28;20517;-80
2022/05/29 10:09:17;;;;;;;6.65;2.20;;;;;;;16.85;69.44;101021.00;5043156;28;20102;-78
2022/05/29 10:11:53;;;;;;;6.95;1.88;;;;;;;16.39;69.51;101015.56;5046048;28;20045;-76
2022/05/29 10:14:38;;;;;;;11.45;3.22;;;;;;;16.37;72.97;101015.19;5039811;28;20049;-78
2022/05/29 10:17:12;;;;;;;8.98;2.58;;;;;;;16.55;74.19;101024.06;5044692;28;20053;-75
2022/05/29 10:19:44;;;;;;;7.68;2.13;;;;;;;16.63;73.26;101019.88;5048316;28;20126;-76
2022/05/29 10:22:21;;;;;;;9.55;2.13;;;;;;;16.63;74.20;101019.09;5040922;28;20413;-77
2022/05/29 10:24:48;;;;;;;11.68;2.38;;;;;;;16.62;73.23;101009.94;5041371;28;20831;-76
2022/05/29 10:27:36;;;;;;;8.20;2.20;;;;;;;16.82;74.22;101012.69;5032362;28;20172;-76
2022/05/29 10:30:08;;;;;;;6.47;1.42;;;;;;;16.70;67.52;101008.56;5038090;28;20144;-78
2022/05/29 10:32:38;;;;;;;8.07;1.48;;;;;;;16.81;65.66;101008.34;5036691;28;20175;-78
2022/05/29 10:35:28;;;;;;;6.35;1.65;;;;;;;16.98;65.66;101007.91;5033174;28;20045;-76
2022/05/29 10:37:55;;;;;;;6.10;1.65;;;;;;;17.23;64.87;101004.56;5041641;28;20420;-77
2022/05/29 10:40:32;;;;;;;2.10;1.38;;;;;;;17.37;61.87;101007.00;5029876;28;20509;-77
2022/05/29 10:43:03;;;;;;;8.95;2.03;;;;;;;17.43;61.20;101000.50;5027599;28;20498;-77
2022/05/29 10:45:43;;;;;;;5.55;1.50;;;;;;;17.52;56.51;101002.69;5021571;28;20068;-76
2022/05/29 10:48:24;;;;;;;4.35;1.15;;;;;;;17.61;56.14;101003.63;5035697;28;20571;-78
2022/05/29 10:51:15;;;;;;;5.32;2.00;;;;;;;17.73;58.13;101002.16;5031049;28;20096;-76
2022/05/29 10:54:04;;;;;;;5.55;1.80;;;;;;;17.72;64.85;101011.78;5035969;28;20073;-79
2022/05/29 10:56:49;;;;;;;4.90;1.80;;;;;;;17.68;67.71;101005.47;5040041;28;20053;-77
2022/05/29 10:59:40;;;;;;;9.38;2.20;;;;;;;17.30;70.45;101001.59;5038237;28;20136;-80
2022/05/29 11:05:35;;;;;;;11.20;2.55;;;;;;;16.91;76.83;101018.50;5035376;28;20124;-78
2022/05/29 11:08:44;;;;;;;6.63;2.55;;;;;;;16.86;78.09;101007.81;5038281;28;20387;-79
2022/05/29 11:11:41;;;;;;;9.65;2.78;;;;;;;17.00;81.89;101015.88;5023170;28;20074;-78
2022/05/29 11:14:29;;;;;;;2.83;1.30;;;;;;;17.07;77.09;101007.31;5036371;28;20132;-78
2022/05/29 11:17:11;;;;;;;7.05;1.35;;;;;;;17.03;78.67;101009.41;5039897;28;20045;-78
2022/05/29 11:19:49;;;;;;;2.25;0.95;;;;;;;16.92;79.47;101006.88;5032679;28;20121;-78
2022/05/29 11:22:43;;;;;;;3.30;1.40;;;;;;;17.17;75.86;101003.50;5041301;28;20060;-80
2022/05/29 11:25:28;;;;;;;5.95;1.17;;;;;;;17.36;74.04;100994.25;5032778;28;20060;-78
2022/05/29 11:28:11;;;;;;;2.47;1.27;;;;;;;17.68;72.98;100997.84;5043019;28;20110;-78
2022/05/29 11:31:03;;;;;;;6.15;1.63;;;;;;;17.69;65.88;100995.84;5040177;28;20131;-79
2022/05/29 11:33:56;;;;;;;3.35;1.20;;;;;;;17.46;65.08;100998.84;5036076;28;20136;-78
2022/05/29 11:36:28;;;;;;;5.45;1.30;;;;;;;17.19;63.94;100999.06;5044545;28;20063;-79
2022/05/29 11:39:16;;;;;;;6.35;1.50;;;;;;;16.92;65.71;100989.31;5042695;28;20056;-80
2022/05/29 11:41:47;;;;;;;10.50;2.70;;;;;;;16.90;67.09;100994.53;5036489;28;20063;-79
2022/05/29 11:44:29;;;;;;;4.80;0.95;;;;;;;16.68;73.51;100987.84;5040883;28;20133;-79
2022/05/29 11:52:54;;;;;;;3.67;1.52;;;;;;;16.86;76.90;100988.25;5038331;28;20075;-76
2022/05/29 11:55:22;;;;;;;;;;;;;;;16.92;76.25;100978.13;5044665;28;20484;-78
2022/05/29 11:57:52;;;;;;;4.13;1.30;;;;;;;17.00;73.09;100985.94;5047077;28;20449;-77
2022/05/29 12:00:37;;;;;;;9.70;1.40;;;;;;;17.16;73.67;100974.75;5044211;28;20114;-72
2022/05/29 12:03:31;;;;;;;6.95;1.80;;;;;;;17.35;72.87;100970.31;5038179;28;20569;-77
2022/05/29 12:06:06;;;;;;;6.30;1.92;;;;;;;17.51;69.51;100961.94;5038990;28;20053;-76
2022/05/29 12:08:41;;;;;;;5.25;1.48;;;;;;;17.79;67.93;100961.97;5034581;28;20719;-76
2022/05/29 12:11:26;;;;;;;;;;;;;;;18.12;64.52;100959.88;5038036;28;20062;-80
2022/05/29 12:14:17;;;;;;;6.30;1.73;;;;;;;18.54;62.98;100955.88;5033135;28;19924;-76
2022/05/29 12:16:48;;;;;;;10.88;2.25;;;;;;;18.95;64.00;100944.59;5040327;28;20572;-80
2022/05/29 12:19:19;;;;;;;8.20;1.90;;;;;;;19.16;60.80;100949.50;5030143;28;20577;-81
2022/05/29 12:21:52;;;;;;;6.97;2.00;;;;;;;19.39;58.67;100951.19;5028459;28;20231;-78
2022/05/29 12:24:26;;;;;;;10.88;1.88;;;;;;;19.68;57.33;100946.19;5027577;28;20506;-77